Time;durP1;ratioP1;P1;durP2;ratioP2;P2;SDS_P1;SDS_P2;PMS_P1;PMS_P2;Temp;Humidity;BMP_temperature;BMP_pressure;BME280_temperature;BME280_humidity;BME280_pressure;Samples;Min_cycle;Max_cycle;Signal;HPM_P1;HPM_P2
2022/04/01 00:00:19;;;;;;;1.00;1.00;;;19.50;48.70;;;;;;4997386;28;20192;-66
2022/04/01 00:02:47;;;;;;;0.90;0.90;;;19.40;48.60;;;;;;5014739;28;20169;-65
2022/04/01 00:05:13;;;;;;;1.00;1.00;;;19.40;48.60;;;;;;5014739;28;20208;-65
2022/04/01 00:07:42;;;;;;;1.10;0.98;;;19.40;48.60;;;;;;5013361;28;20195;-65
2022/04/01 00:10:09;;;;;;;1.00;0.88;;;19.40;48.60;;;;;;4996914;28;20655;-65
2022/04/01 00:12:43;;;;;;;1.35;0.80;;;19.40;48.50;;;;;;4985806;28;20223;-65
2022/04/01 00:15:12;;;;;;;1.40;0.90;;;19.50;48.60;;;;;;4994596;28;20205;-66
2022/04/01 00:17:40;;;;;;;1.15;1.08;;;19.50;48.60;;;;;;4977347;28;20207;-65
2022/04/01 00:20:07;;;;;;;1.10;1.00;;;19.50;48.60;;;;;;4977483;28;20189;-65
2022/04/01 00:22:33;;;;;;;1.27;1.08;;;19.50;48.60;;;;;;4993458;28;20225;-66
2022/04/01 00:24:59;;;;;;;1.48;1.10;;;19.50;48.60;;;;;;4977059;28;20247;-66
2022/04/01 00:27:25;;;;;;;1.15;0.95;;;19.50;48.60;;;;;;4993428;28;20224;-65
2022/04/01 00:29:51;;;;;;;1.42;0.90;;;19.50;48.60;;;;;;4977200;28;20185;-65
2022/04/01 00:32:17;;;;;;;1.08;0.90;;;19.50;48.60;;;;;;4977144;28;20254;-65
2022/04/01 00:34:45;;;;;;;0.80;0.80;;;19.50;48.50;;;;;;4977011;28;20197;-64
2022/04/01 00:37:11;;;;;;;1.02;0.80;;;19.50;48.60;;;;;;4976287;28;20323;-66
2022/04/01 00:39:38;;;;;;;0.90;0.90;;;19.50;48.60;;;;;;4992822;28;20184;-64
2022/04/01 00:42:04;;;;;;;0.85;0.82;;;19.50;48.50;;;;;;4977148;28;20288;-65
2022/04/01 00:44:33;;;;;;;0.90;0.90;;;19.40;48.50;;;;;;4993987;28;20223;-65
2022/04/01 00:47:09;;;;;;;0.88;0.88;;;19.50;48.60;;;;;;4977088;28;20216;-65
2022/04/01 00:49:35;;;;;;;0.88;0.88;;;19.50;48.60;;;;;;4994151;28;20625;-65
2022/04/01 00:52:05;;;;;;;0.80;0.80;;;19.50;48.50;;;;;;4993272;28;20262;-65
2022/04/01 00:54:32;;;;;;;1.25;1.08;;;19.50;48.50;;;;;;4976868;28;20580;-65
2022/04/01 00:56:59;;;;;;;0.60;0.60;;;19.50;48.60;;;;;;4992694;28;20195;-66
2022/04/01 00:59:25;;;;;;;0.80;0.80;;;19.50;48.50;;;;;;4992839;28;20264;-65
2022/04/01 01:01:51;;;;;;;0.93;0.93;;;19.50;48.60;;;;;;4976583;28;20260;-66
2022/04/01 01:04:20;;;;;;;0.82;0.82;;;19.50;48.60;;;;;;4976669;28;20205;-66
2022/04/01 01:06:52;;;;;;;0.85;0.80;;;19.50;48.50;;;;;;4976452;28;20180;-65
2022/04/01 01:09:19;;;;;;;0.90;0.90;;;19.50;48.50;;;;;;4976676;28;20205;-65
2022/04/01 01:11:50;;;;;;;0.85;0.82;;;19.50;48.50;;;;;;4981003;28;20230;-65
2022/04/01 01:14:31;;;;;;;0.70;0.70;;;19.50;48.50;;;;;;4995610;28;20691;-64
2022/04/01 01:16:59;;;;;;;0.77;0.77;;;19.50;48.50;;;;;;4995219;28;20184;-65
2022/04/01 01:19:26;;;;;;;1.20;0.73;;;19.50;48.50;;;;;;4976513;28;20189;-65
2022/04/01 01:21:55;;;;;;;0.70;0.70;;;19.50;48.50;;;;;;4976499;28;20255;-65
2022/04/01 01:24:34;;;;;;;0.65;0.65;;;19.50;48.60;;;;;;4976271;28;20311;-66
2022/04/01 01:27:01;;;;;;;0.82;0.82;;;19.50;48.60;;;;;;4992659;28;20193;-65
2022/04/01 01:29:31;;;;;;;0.70;0.70;;;19.50;48.60;;;;;;4976039;28;20604;-65
2022/04/01 01:32:01;;;;;;;0.57;0.57;;;19.50;48.50;;;;;;4975956;28;20199;-66
2022/04/01 01:34:28;;;;;;;0.63;0.60;;;19.50;48.50;;;;;;4975916;28;20228;-65
2022/04/01 01:36:54;;;;;;;1.13;0.63;;;19.50;48.60;;;;;;5002694;28;20188;-65
2022/04/01 01:39:21;;;;;;;0.73;0.73;;;19.50;48.50;;;;;;4995292;28;20271;-65
2022/04/01 01:41:49;;;;;;;1.13;0.70;;;19.50;48.50;;;;;;4995258;28;20699;-65
2022/04/01 01:46:48;;;;;;;1.00;0.82;;;19.50;48.50;;;;;;5010897;28;20634;-70
2022/04/01 01:49:14;;;;;;;0.60;0.60;;;19.50;48.50;;;;;;5014553;28;20183;-71
2022/04/01 01:54:45;;;;;;;0.65;0.60;;;19.50;48.50;;;;;;5014655;28;20199;-71
2022/04/01 01:57:24;;;;;;;0.80;0.60;;;19.50;48.50;;;;;;5015042;28;20187;-70
2022/04/01 01:59:55;;;;;;;0.55;0.55;;;19.50;48.50;;;;;;4998886;28;20183;-70
2022/04/01 02:02:21;;;;;;;0.80;0.60;;;19.50;48.50;;;;;;5014616;28;20189;-71
2022/04/01 02:04:49;;;;;;;0.55;0.55;;;19.50;48.50;;;;;;5014509;28;20298;-71
2022/04/01 02:07:15;;;;;;;1.08;0.70;;;19.50;48.50;;;;;;4998237;28;20179;-70
2022/04/01 02:09:46;;;;;;;0.93;0.70;;;19.50;48.50;;;;;;5014729;28;20182;-71
2022/04/01 02:12:13;;;;;;;0.80;0.80;;;19.50;48.50;;;;;;4998410;28;20282;-70
2022/04/01 02:14:39;;;;;;;0.60;0.60;;;19.50;48.50;;;;;;5021925;28;20264;-71
2022/04/01 02:17:05;;;;;;;0.60;0.60;;;19.50;48.50;;;;;;5026789;28;20186;-70
2022/04/01 02:19:32;;;;;;;0.60;0.60;;;19.50;48.50;;;;;;5034258;28;20186;-71
2022/04/01 02:21:59;;;;;;;1.05;0.77;;;19.50;48.50;;;;;;5018007;28;20236;-70
2022/04/01 02:24:26;;;;;;;0.75;0.70;;;19.50;48.40;;;;;;5034484;28;20183;-71
2022/04/01 02:26:53;;;;;;;0.60;0.60;;;19.50;48.40;;;;;;5034255;28;20189;-71
2022/04/01 02:29:21;;;;;;;0.52;0.52;;;19.50;48.50;;;;;;5017963;28;20186;-71
2022/04/01 02:32:19;;;;;;;0.70;0.50;;;19.50;48.40;;;;;;5012809;28;20267;-71
2022/04/01 02:35:18;;;;;;;0.85;0.60;;;19.50;48.40;;;;;;5023062;28;20230;-70
2022/04/01 02:37:44;;;;;;;0.70;0.70;;;19.50;48.40;;;;;;5034227;28;20650;-71
2022/04/01 02:40:11;;;;;;;0.40;0.40;;;19.50;48.40;;;;;;5034321;28;20223;-70
2022/04/01 02:42:38;;;;;;;0.60;0.60;;;19.50;48.40;;;;;;5017791;28;20252;-70
2022/04/01 02:45:06;;;;;;;0.50;0.50;;;19.50;48.40;;;;;;5011651;28;20219;-71
2022/04/01 02:47:33;;;;;;;0.50;0.50;;;19.50;48.40;;;;;;5018892;28;20199;-71
2022/04/01 02:50:00;;;;;;;0.60;0.60;;;19.50;48.40;;;;;;5047147;28;20179;-71
2022/04/01 02:52:27;;;;;;;0.60;0.60;;;19.60;48.50;;;;;;5013957;28;20211;-71
2022/04/01 02:54:53;;;;;;;0.68;0.50;;;19.50;48.40;;;;;;5022388;28;20214;-70
2022/04/01 02:57:22;;;;;;;0.40;0.40;;;19.50;48.50;;;;;;5003295;28;20191;-70
2022/04/01 02:59:48;;;;;;;0.50;0.50;;;19.50;48.50;;;;;;5014456;28;20337;-70
2022/04/01 03:02:15;;;;;;;1.20;0.70;;;19.50;48.50;;;;;;5000282;28;20684;-71
2022/04/01 03:04:42;;;;;;;0.68;0.68;;;19.50;48.50;;;;;;5001481;28;20200;-70
2022/04/01 03:07:08;;;;;;;1.67;0.60;;;19.50;48.50;;;;;;5013486;28;20191;-71
2022/04/01 03:09:34;;;;;;;0.60;0.55;;;19.50;48.50;;;;;;5017787;28;20198;-71
2022/04/01 03:12:08;;;;;;;0.80;0.60;;;19.50;48.50;;;;;;5021792;28;20210;-70
2022/04/01 03:14:49;;;;;;;0.60;0.50;;;19.50;48.50;;;;;;5046964;28;20205;-71
2022/04/01 03:17:33;;;;;;;0.50;0.50;;;19.50;48.50;;;;;;5040414;28;20178;-70
2022/04/01 03:20:11;;;;;;;0.60;0.60;;;19.50;48.50;;;;;;5037308;28;20197;-71
2022/04/01 03:22:37;;;;;;;0.77;0.77;;;19.50;48.50;;;;;;5020834;28;20193;-70
2022/04/01 03:25:05;;;;;;;0.50;0.50;;;19.50;48.50;;;;;;5037065;28;20206;-71
2022/04/01 03:27:35;;;;;;;0.40;0.40;;;19.50;48.50;;;;;;5037751;28;20193;-70
2022/04/01 03:30:01;;;;;;;0.60;0.52;;;19.50;48.50;;;;;;5037118;28;20182;-70
2022/04/01 03:32:27;;;;;;;0.60;0.60;;;19.50;48.50;;;;;;5017623;28;20591;-71
2022/04/01 03:34:53;;;;;;;1.05;0.57;;;19.50;48.50;;;;;;5017366;28;20254;-71
2022/04/01 03:37:19;;;;;;;0.55;0.55;;;19.50;48.50;;;;;;5017080;28;20175;-70
2022/04/01 03:39:46;;;;;;;0.95;0.65;;;19.50;48.50;;;;;;5017637;28;20247;-71
2022/04/01 03:42:14;;;;;;;0.50;0.45;;;19.50;48.50;;;;;;5017387;28;20184;-70
2022/04/01 03:44:41;;;;;;;0.70;0.70;;;19.50;48.50;;;;;;5017017;28;20297;-71
2022/04/01 03:47:52;;;;;;;0.60;0.60;;;19.50;48.50;;;;;;5010311;28;20241;-71
2022/04/01 03:50:31;;;;;;;0.57;0.57;;;19.50;48.50;;;;;;5017107;28;20180;-71
2022/04/01 03:53:04;;;;;;;0.50;0.50;;;19.50;48.50;;;;;;5016963;28;20207;-71
2022/04/01 03:55:37;;;;;;;0.88;0.80;;;19.50;48.40;;;;;;5016936;28;20195;-71
2022/04/01 03:58:18;;;;;;;0.60;0.60;;;19.50;48.50;;;;;;5019042;28;20179;-71
2022/04/01 04:01:16;;;;;;;0.70;0.70;;;19.50;48.50;;;;;;5021473;28;20213;-70
2022/04/01 04:03:49;;;;;;;0.70;0.70;;;19.50;48.50;;;;;;5017175;28;20187;-70
2022/04/01 04:06:18;;;;;;;0.80;0.80;;;19.50;48.40;;;;;;5000111;28;20290;-70
2022/04/01 04:08:46;;;;;;;0.70;0.70;;;19.50;48.50;;;;;;5016797;28;20199;-70
2022/04/01 04:11:13;;;;;;;0.60;0.60;;;19.50;48.40;;;;;;5000306;28;20314;-71
2022/04/01 04:13:58;;;;;;;0.63;0.63;;;19.50;48.50;;;;;;5016505;28;20230;-70
2022/04/01 04:16:36;;;;;;;0.60;0.60;;;19.50;48.40;;;;;;5016240;28;20257;-71
2022/04/01 04:19:31;;;;;;;0.77;0.77;;;19.50;48.50;;;;;;5000386;28;20194;-70
2022/04/01 04:22:14;;;;;;;0.80;0.73;;;19.50;48.50;;;;;;5016695;28;20199;-70
2022/04/01 04:25:10;;;;;;;0.68;0.68;;;19.50;48.50;;;;;;5019392;28;20211;-71
2022/04/01 04:27:43;;;;;;;0.90;0.68;;;19.50;48.40;;;;;;5000383;28;20198;-70
2022/04/01 04:30:12;;;;;;;0.77;0.77;;;19.50;48.40;;;;;;5000380;28;20187;-71
2022/04/01 04:32:59;;;;;;;0.73;0.73;;;19.50;48.40;;;;;;5001673;28;20221;-71
2022/04/01 04:35:28;;;;;;;0.73;0.60;;;19.50;48.50;;;;;;5016343;28;20207;-71
2022/04/01 04:37:57;;;;;;;1.30;0.50;;;19.50;48.50;;;;;;5016574;28;20270;-70
2022/04/01 04:40:25;;;;;;;0.52;0.52;;;19.50;48.40;;;;;;4999823;28;20179;-71
2022/04/01 04:43:02;;;;;;;0.85;0.80;;;19.50;48.40;;;;;;5017429;28;20187;-71
2022/04/01 04:45:29;;;;;;;0.40;0.40;;;19.50;49.10;;;;;;5015935;28;20233;-71
2022/04/01 04:47:58;;;;;;;0.68;0.68;;;19.50;48.50;;;;;;5016002;28;20224;-71
2022/04/01 04:50:24;;;;;;;0.60;0.60;;;19.50;48.50;;;;;;4999482;28;20194;-71
2022/04/01 04:52:54;;;;;;;0.75;0.75;;;19.50;48.50;;;;;;5015789;28;20293;-71
2022/04/01 04:55:22;;;;;;;0.60;0.60;;;19.50;48.40;;;;;;5043322;28;20290;-71
2022/04/01 04:57:55;;;;;;;0.47;0.47;;;19.50;48.50;;;;;;5011120;28;20191;-71
2022/04/01 05:00:21;;;;;;;0.63;0.63;;;19.50;48.40;;;;;;5015270;28;20182;-71
2022/04/01 05:03:46;;;;;;;0.50;0.50;;;19.50;48.40;;;;;;5030663;28;20190;-71
2022/04/01 05:06:24;;;;;;;1.23;0.60;;;19.50;48.50;;;;;;5028103;28;20573;-71
2022/04/01 05:09:32;;;;;;;0.60;0.60;;;19.50;48.50;;;;;;5018357;28;20182;-71
2022/04/01 05:12:25;;;;;;;0.55;0.55;;;19.50;48.50;;;;;;4995523;28;20184;-71
2022/04/01 05:15:21;;;;;;;0.50;0.50;;;19.50;48.40;;;;;;5001648;28;20739;-70
2022/04/01 05:18:14;;;;;;;0.52;0.52;;;19.50;48.50;;;;;;5006554;28;20176;-71
2022/04/01 05:20:57;;;;;;;0.80;0.60;;;19.50;48.40;;;;;;5028744;28;20185;-70
2022/04/01 05:24:00;;;;;;;0.77;0.60;;;19.50;48.50;;;;;;5028042;28;20180;-70
2022/04/01 05:26:40;;;;;;;0.68;0.68;;;19.60;48.50;;;;;;4995800;28;20203;-70
2022/04/01 05:29:26;;;;;;;0.57;0.57;;;19.50;48.40;;;;;;5028355;28;20643;-71
2022/04/01 05:31:55;;;;;;;0.50;0.50;;;19.50;48.40;;;;;;5031629;28;20197;-71
2022/04/01 05:34:43;;;;;;;0.60;0.60;;;19.50;48.50;;;;;;5015318;28;20794;-71
2022/04/01 05:37:10;;;;;;;0.60;0.60;;;19.50;48.50;;;;;;5015123;28;20194;-70
2022/04/01 05:39:41;;;;;;;0.52;0.52;;;19.50;48.50;;;;;;5015123;28;20266;-71
2022/04/01 05:42:12;;;;;;;0.50;0.50;;;19.50;48.50;;;;;;5015131;28;20183;-71
2022/04/01 05:44:51;;;;;;;0.63;0.60;;;19.50;48.50;;;;;;5016238;28;20249;-71
2022/04/01 05:47:21;;;;;;;0.47;0.47;;;19.50;48.50;;;;;;5014858;28;20183;-71
2022/04/01 05:49:47;;;;;;;0.52;0.52;;;19.60;48.50;;;;;;5031441;28;20639;-71
2022/04/01 05:52:19;;;;;;;1.92;0.65;;;19.60;48.50;;;;;;5015797;28;20210;-71
2022/04/01 05:54:46;;;;;;;0.70;0.70;;;19.50;48.50;;;;;;4998477;28;20210;-71
2022/04/01 05:57:12;;;;;;;1.27;0.50;;;19.60;48.60;;;;;;4998397;28;20175;-70
2022/04/01 05:59:40;;;;;;;0.60;0.60;;;19.60;48.60;;;;;;5014664;28;20179;-70
2022/04/01 06:02:46;;;;;;;1.00;0.70;;;19.60;48.60;;;;;;5015045;28;20183;-71
2022/04/01 06:06:08;;;;;;;1.40;0.73;;;19.60;48.60;;;;;;5014639;28;20214;-71
2022/04/01 06:08:55;;;;;;;1.58;0.73;;;19.50;48.50;;;;;;4994773;28;20199;-71
2022/04/01 06:12:01;;;;;;;0.70;0.70;;;19.60;48.60;;;;;;5014313;28;20201;-71
2022/04/01 06:15:24;;;;;;;0.90;0.70;;;19.50;48.50;;;;;;5017335;28;20273;-71
2022/04/01 06:18:53;;;;;;;0.70;0.70;;;19.60;48.60;;;;;;5015202;28;20229;-71
2022/04/01 06:21:27;;;;;;;0.63;0.63;;;19.60;48.60;;;;;;5013693;28;20183;-71
2022/04/01 06:24:08;;;;;;;1.52;0.70;;;19.60;48.60;;;;;;5014617;28;20183;-71
2022/04/01 06:26:45;;;;;;;1.88;0.60;;;19.60;48.60;;;;;;5014748;28;20297;-71
2022/04/01 06:29:17;;;;;;;0.60;0.60;;;19.50;48.50;;;;;;4998174;28;20215;-71
2022/04/01 06:31:53;;;;;;;0.80;0.73;;;19.60;48.60;;;;;;5014742;28;20207;-71
2022/04/01 06:34:58;;;;;;;0.98;0.80;;;19.60;48.60;;;;;;5003145;28;20184;-71
2022/04/01 06:38:05;;;;;;;1.15;0.77;;;19.60;48.60;;;;;;5020815;28;20250;-72
2022/04/01 06:40:56;;;;;;;0.70;0.70;;;19.60;48.60;;;;;;5028334;28;20271;-71
2022/04/01 06:43:30;;;;;;;1.40;0.63;;;19.60;48.60;;;;;;5038553;28;20264;-70
2022/04/01 06:46:28;;;;;;;0.55;0.52;;;19.60;48.60;;;;;;5016641;28;20273;-71
2022/04/01 06:48:56;;;;;;;1.33;0.77;;;19.60;48.60;;;;;;4999495;28;20212;-70
2022/04/01 06:51:43;;;;;;;1.40;0.57;;;19.60;48.60;;;;;;5034934;28;20271;-71
2022/04/01 06:54:27;;;;;;;0.68;0.68;;;19.60;48.60;;;;;;5035700;28;20266;-71
2022/04/01 06:57:11;;;;;;;1.42;0.70;;;19.60;48.60;;;;;;5020505;28;20206;-70
2022/04/01 06:59:57;;;;;;;0.50;0.50;;;19.60;48.60;;;;;;5034941;28;20209;-70
2022/04/01 07:02:23;;;;;;;0.52;0.47;;;19.60;48.60;;;;;;5017874;28;20187;-71
2022/04/01 07:04:49;;;;;;;0.60;0.52;;;19.60;48.60;;;;;;5018743;28;20588;-71
2022/04/01 07:07:14;;;;;;;2.15;0.90;;;19.60;48.60;;;;;;5017477;28;20199;-71
2022/04/01 07:09:40;;;;;;;1.27;0.52;;;19.60;48.60;;;;;;5017360;28;20191;-71
2022/04/01 07:12:07;;;;;;;1.35;0.88;;;19.60;48.60;;;;;;5017635;28;20242;-70
2022/04/01 07:14:32;;;;;;;0.85;0.60;;;19.60;48.60;;;;;;5021930;28;20598;-70
2022/04/01 07:16:59;;;;;;;0.70;0.50;;;19.50;48.50;;;;;;5037197;28;20237;-71
2022/04/01 07:19:25;;;;;;;0.98;0.60;;;19.60;48.60;;;;;;5035170;28;20190;-71
2022/04/01 07:21:51;;;;;;;0.50;0.50;;;19.60;48.60;;;;;;5017753;28;20191;-71
2022/04/01 07:24:17;;;;;;;1.40;0.70;;;19.60;48.60;;;;;;5017573;28;20241;-71
2022/04/01 07:26:44;;;;;;;1.50;0.63;;;19.60;48.60;;;;;;5017217;28;20249;-71
2022/04/01 07:29:12;;;;;;;0.55;0.55;;;19.60;48.60;;;;;;5017403;28;20187;-71
2022/04/01 07:34:34;;;;;;;0.77;0.57;;;19.60;48.60;;;;;;5034825;28;20191;-71
2022/04/01 07:37:00;;;;;;;0.50;0.50;;;19.60;48.60;;;;;;5033821;28;20191;-71
2022/04/01 07:39:27;;;;;;;0.75;0.70;;;19.60;48.60;;;;;;5020831;28;20191;-70
2022/04/01 07:41:53;;;;;;;0.77;0.60;;;19.60;48.60;;;;;;5033923;28;20198;-71
2022/04/01 07:44:19;;;;;;;1.38;0.55;;;19.60;48.60;;;;;;5033652;28;20190;-71
2022/04/01 07:46:45;;;;;;;0.63;0.57;;;19.60;48.60;;;;;;5069225;22;20288;-66
2022/04/01 07:49:11;;;;;;;0.95;0.60;;;19.60;48.60;;;;;;5026016;28;20190;-65
2022/04/01 07:51:38;;;;;;;0.50;0.40;;;19.60;48.60;;;;;;5033502;28;20171;-65
2022/04/01 07:54:04;;;;;;;0.47;0.47;;;19.60;48.60;;;;;;5033285;28;20231;-66
2022/04/01 07:56:32;;;;;;;0.60;0.60;;;19.60;48.50;;;;;;5029617;28;20200;-65
2022/04/01 07:58:59;;;;;;;1.23;0.70;;;19.60;48.50;;;;;;5054613;28;20200;-65
2022/04/01 08:01:25;;;;;;;1.60;0.60;;;19.60;48.60;;;;;;5012710;28;20211;-65
2022/04/01 08:03:51;;;;;;;0.60;0.60;;;19.60;48.60;;;;;;5020577;28;20171;-65
2022/04/01 08:06:17;;;;;;;0.50;0.50;;;19.60;48.60;;;;;;5019436;28;20597;-65
2022/04/01 08:08:43;;;;;;;0.77;0.70;;;19.60;49.10;;;;;;5019774;28;20187;-65
2022/04/01 08:11:09;;;;;;;0.57;0.47;;;19.60;48.50;;;;;;5012929;28;20577;-65
2022/04/01 08:13:35;;;;;;;0.30;0.30;;;19.60;48.50;;;;;;5013159;28;20243;-65
2022/04/01 08:16:01;;;;;;;0.68;0.43;;;19.60;48.60;;;;;;5026374;28;20216;-65
2022/04/01 08:18:27;;;;;;;0.50;0.50;;;19.60;48.50;;;;;;5010033;28;20216;-65
2022/04/01 08:20:53;;;;;;;0.60;0.60;;;19.60;48.50;;;;;;5012965;28;20199;-65
2022/04/01 08:23:19;;;;;;;0.57;0.52;;;19.60;48.50;;;;;;5029239;28;20218;-66
2022/04/01 08:25:46;;;;;;;0.50;0.50;;;19.60;48.40;;;;;;5013022;28;20213;-65
2022/04/01 08:28:13;;;;;;;0.60;0.60;;;19.60;48.40;;;;;;5029730;28;20664;-65
2022/04/01 08:30:40;;;;;;;0.85;0.50;;;19.60;48.50;;;;;;5012761;28;20562;-64
2022/04/01 08:33:07;;;;;;;0.90;0.52;;;19.60;48.40;;;;;;5013971;28;20295;-66
2022/04/01 08:35:33;;;;;;;0.63;0.60;;;19.60;48.40;;;;;;5029060;28;20200;-65
2022/04/01 08:38:00;;;;;;;0.82;0.60;;;19.60;48.50;;;;;;5023992;28;20229;-65
2022/04/01 08:40:29;;;;;;;0.60;0.50;;;19.60;48.40;;;;;;5017037;28;20184;-66
2022/04/01 08:42:55;;;;;;;0.68;0.57;;;19.60;48.50;;;;;;5020869;28;20245;-65
2022/04/01 08:45:21;;;;;;;0.50;0.50;;;19.60;48.40;;;;;;5026990;28;20237;-65
2022/04/01 08:47:50;;;;;;;0.80;0.60;;;19.60;48.40;;;;;;5032642;28;20180;-66
2022/04/01 08:50:16;;;;;;;2.15;0.40;;;19.60;48.40;;;;;;5023060;28;20203;-66
2022/04/01 08:52:41;;;;;;;0.55;0.40;;;19.60;48.40;;;;;;5029350;28;20212;-66
2022/04/01 08:55:10;;;;;;;0.82;0.55;;;19.60;48.40;;;;;;5029825;28;20211;-66
2022/04/01 08:57:40;;;;;;;1.38;0.68;;;19.60;48.40;;;;;;5027336;28;20184;-65
2022/04/01 09:00:15;;;;;;;0.63;0.50;;;19.60;48.40;;;;;;5011415;28;20188;-66
2022/04/01 09:02:43;;;;;;;1.08;0.55;;;19.60;48.40;;;;;;5012732;28;20604;-66
2022/04/01 09:05:10;;;;;;;1.40;0.70;;;19.60;48.40;;;;;;5053236;28;20207;-66
2022/04/01 09:07:36;;;;;;;0.70;0.60;;;19.60;48.40;;;;;;5029949;28;20221;-66
2022/04/01 09:10:06;;;;;;;0.80;0.70;;;19.60;48.40;;;;;;5024500;28;20283;-66
2022/04/01 09:12:32;;;;;;;0.50;0.50;;;19.60;48.30;;;;;;5012378;28;20343;-66
2022/04/01 09:14:58;;;;;;;0.50;0.50;;;19.60;48.40;;;;;;5039814;28;20183;-65
2022/04/01 09:17:46;;;;;;;0.52;0.52;;;19.60;48.40;;;;;;5032801;28;20179;-65
2022/04/01 09:20:14;;;;;;;1.88;0.70;;;19.60;48.30;;;;;;5039660;28;20199;-65
2022/04/01 09:22:43;;;;;;;0.70;0.55;;;19.60;48.30;;;;;;5021340;28;20247;-66
2022/04/01 09:25:15;;;;;;;0.85;0.70;;;19.60;48.30;;;;;;5028229;28;20211;-66
2022/04/01 09:27:52;;;;;;;0.50;0.50;;;19.60;48.40;;;;;;5009845;28;20229;-64
2022/04/01 09:30:23;;;;;;;0.43;0.43;;;19.60;48.30;;;;;;5027004;28;20194;-66
2022/04/01 09:32:59;;;;;;;0.70;0.60;;;19.60;48.40;;;;;;5011575;28;20216;-66
2022/04/01 09:35:30;;;;;;;1.20;0.50;;;19.60;48.30;;;;;;5018036;28;20757;-65
2022/04/01 09:38:01;;;;;;;2.22;0.70;;;19.70;48.40;;;;;;5031319;28;20188;-66
2022/04/01 09:40:28;;;;;;;0.65;0.45;;;19.70;48.40;;;;;;5020411;28;20192;-65
2022/04/01 09:42:58;;;;;;;0.70;0.70;;;19.60;48.30;;;;;;5061024;28;20298;-63
2022/04/01 09:45:35;;;;;;;1.23;0.50;;;19.70;48.40;;;;;;5011374;28;20212;-65
2022/04/01 09:48:16;;;;;;;0.70;0.65;;;19.70;48.40;;;;;;5011902;28;20187;-66
2022/04/01 09:50:53;;;;;;;0.93;0.82;;;19.70;48.30;;;;;;5011777;28;20555;-65
2022/04/01 09:53:19;;;;;;;0.60;0.57;;;19.70;48.30;;;;;;5011445;28;20243;-65
2022/04/01 09:55:49;;;;;;;0.93;0.60;;;19.60;48.30;;;;;;5011460;28;20295;-66
2022/04/01 09:58:19;;;;;;;1.48;0.60;;;19.70;48.40;;;;;;4997355;28;20334;-65
2022/04/01 10:00:46;;;;;;;1.33;0.70;;;19.70;48.30;;;;;;5036821;28;20200;-66
2022/04/01 10:03:15;;;;;;;0.63;0.60;;;19.70;48.40;;;;;;5027875;28;20187;-66
2022/04/01 10:05:42;;;;;;;0.90;0.80;;;19.70;48.30;;;;;;5027673;28;20212;-64
2022/04/01 10:08:11;;;;;;;0.77;0.60;;;19.70;48.40;;;;;;5011321;28;20199;-66
2022/04/01 10:10:39;;;;;;;1.05;0.63;;;19.70;48.40;;;;;;5010979;28;20283;-66
2022/04/01 10:13:10;;;;;;;0.90;0.60;;;19.70;48.40;;;;;;5024290;28;20672;-66
2022/04/01 10:15:41;;;;;;;0.60;0.60;;;19.70;48.30;;;;;;4991529;28;20292;-65
2022/04/01 10:18:07;;;;;;;1.17;0.60;;;19.70;48.30;;;;;;4991786;28;20181;-66
2022/04/01 10:20:37;;;;;;;0.75;0.75;;;19.70;48.20;;;;;;5010267;28;20265;-65
2022/04/01 10:23:11;;;;;;;0.60;0.60;;;19.70;48.20;;;;;;5031018;28;20269;-65
2022/04/01 10:25:51;;;;;;;0.68;0.60;;;19.70;48.20;;;;;;5031200;28;20302;-65
2022/04/01 10:28:20;;;;;;;0.40;0.40;;;19.70;48.20;;;;;;5032543;28;20268;-66
2022/04/01 10:31:02;;;;;;;0.70;0.70;;;19.70;48.20;;;;;;5017888;28;20709;-66
2022/04/01 10:33:35;;;;;;;1.30;0.60;;;19.70;48.20;;;;;;5032184;28;20253;-66
2022/04/01 10:36:26;;;;;;;0.73;0.73;;;19.70;48.30;;;;;;5031043;28;20203;-66
2022/04/01 10:39:05;;;;;;;1.20;0.50;;;19.70;48.20;;;;;;5047424;28;20195;-65
2022/04/01 10:41:32;;;;;;;0.85;0.70;;;19.70;48.20;;;;;;5023416;28;20190;-63
2022/04/01 10:44:01;;;;;;;0.60;0.60;;;19.70;48.20;;;;;;5032068;28;20183;-66
2022/04/01 10:46:27;;;;;;;0.82;0.70;;;19.70;48.20;;;;;;5030409;28;20218;-66
2022/04/01 10:52:11;;;;;;;0.52;0.50;;;19.70;48.20;;;;;;5027658;28;20200;-65
2022/04/01 10:54:43;;;;;;;1.00;0.50;;;19.70;48.30;;;;;;5027241;28;20216;-66
2022/04/01 10:57:31;;;;;;;2.10;0.77;;;19.70;48.30;;;;;;5010524;28;20251;-66
2022/04/01 11:00:08;;;;;;;0.73;0.60;;;19.70;48.20;;;;;;5011100;28;20181;-66
2022/04/01 11:02:34;;;;;;;2.05;0.80;;;19.80;48.30;;;;;;5024351;28;20188;-66
2022/04/01 11:05:31;;;;;;;1.00;0.50;;;19.70;48.20;;;;;;5027008;28;20193;-64
2022/04/01 11:08:20;;;;;;;1.10;0.70;;;19.70;48.20;;;;;;5010800;28;20203;-66
2022/04/01 11:11:09;;;;;;;0.68;0.60;;;19.70;48.20;;;;;;5026869;28;20264;-66
2022/04/01 11:13:37;;;;;;;1.00;0.63;;;19.80;48.20;;;;;;5018078;28;20200;-66
2022/04/01 11:16:22;;;;;;;0.90;0.70;;;19.80;48.20;;;;;;5029840;28;20303;-67
2022/04/01 11:19:13;;;;;;;1.80;0.77;;;19.80;48.20;;;;;;5027225;28;20177;-68
2022/04/01 11:21:39;;;;;;;0.47;0.47;;;19.80;48.20;;;;;;5026992;28;20271;-66
2022/04/01 11:24:23;;;;;;;0.95;0.60;;;19.80;48.30;;;;;;5031027;28;20184;-67
2022/04/01 11:26:50;;;;;;;1.67;0.60;;;19.80;48.20;;;;;;5015203;28;20215;-66
2022/04/01 11:29:22;;;;;;;0.98;0.73;;;19.80;48.30;;;;;;5030369;28;20187;-66
2022/04/01 11:31:49;;;;;;;1.15;0.70;;;19.80;48.30;;;;;;5030709;28;20212;-66
2022/04/01 11:34:15;;;;;;;1.88;0.70;;;19.80;48.30;;;;;;5027514;28;20215;-67
2022/04/01 11:36:42;;;;;;;1.02;0.90;;;19.80;48.30;;;;;;5013873;28;20204;-66
2022/04/01 11:39:15;;;;;;;1.05;0.70;;;19.80;48.30;;;;;;5030636;28;20209;-66
2022/04/01 11:41:47;;;;;;;0.95;0.70;;;19.80;48.30;;;;;;5016841;28;20264;-65
2022/04/01 11:44:15;;;;;;;0.45;0.45;;;19.80;48.30;;;;;;5025558;28;20183;-66
2022/04/01 11:46:41;;;;;;;1.48;0.80;;;19.80;48.20;;;;;;5049991;28;20215;-66
2022/04/01 11:49:10;;;;;;;1.67;0.85;;;19.80;48.90;;;;;;5033925;28;20199;-66
2022/04/01 11:51:39;;;;;;;0.77;0.77;;;19.80;48.40;;;;;;5021635;28;20184;-67
2022/04/01 11:54:04;;;;;;;1.05;0.90;;;19.80;48.20;;;;;;5033481;28;20212;-66
2022/04/01 11:56:30;;;;;;;1.67;0.80;;;19.90;48.30;;;;;;5007552;28;20221;-66
2022/04/01 11:59:07;;;;;;;1.02;0.52;;;19.90;48.30;;;;;;4995404;28;20192;-67
2022/04/01 12:02:21;;;;;;;1.02;0.80;;;19.80;48.30;;;;;;5012972;28;20184;-67
2022/04/01 12:04:34;;;;;;;0.60;0.60;;;19.90;48.40;;;;;;5022864;28;20203;-66
2022/04/01 12:09:58;;;;;;;1.67;0.77;;;19.90;48.30;;;;;;5014345;28;20188;-66
2022/04/01 12:12:25;;;;;;;0.80;0.73;;;19.90;48.30;;;;;;5029880;28;20542;-67
2022/04/01 12:14:56;;;;;;;1.10;0.80;;;19.90;48.30;;;;;;5032995;28;20258;-65
2022/04/01 12:17:22;;;;;;;2.95;2.30;;;19.90;48.30;;;;;;5029696;28;20176;-66
2022/04/01 12:19:48;;;;;;;1.67;1.00;;;19.90;48.30;;;;;;5029276;28;20215;-66
2022/04/01 12:22:14;;;;;;;2.33;1.50;;;19.90;48.30;;;;;;5026201;28;20189;-66
2022/04/01 12:24:41;;;;;;;1.10;0.95;;;19.90;48.30;;;;;;5021721;28;20188;-66
2022/04/01 12:27:09;;;;;;;1.92;0.90;;;19.90;48.30;;;;;;5019624;28;20203;-66
2022/04/01 12:29:35;;;;;;;1.55;1.00;;;19.90;48.40;;;;;;5029354;28;20196;-67
2022/04/01 12:32:05;;;;;;;2.38;1.13;;;19.90;48.40;;;;;;5012941;28;20188;-66
2022/04/01 12:34:32;;;;;;;2.20;1.23;;;19.90;48.40;;;;;;5031065;28;20302;-67
2022/04/01 12:37:05;;;;;;;2.40;1.33;;;19.90;48.40;;;;;;5012759;28;20204;-66
2022/04/01 12:39:34;;;;;;;1.40;1.00;;;19.90;48.40;;;;;;5028926;28;20747;-66
2022/04/01 12:42:06;;;;;;;2.08;0.93;;;19.90;48.40;;;;;;5029145;28;20192;-66
2022/04/01 12:44:36;;;;;;;3.80;1.23;;;19.90;48.40;;;;;;5012956;28;20211;-64
2022/04/01 12:47:05;;;;;;;2.17;1.00;;;19.90;49.00;;;;;;5037205;28;20254;-66
2022/04/01 12:49:35;;;;;;;1.23;1.10;;;19.90;48.40;;;;;;5012429;28;20218;-66
2022/04/01 12:52:12;;;;;;;1.17;1.00;;;20.00;48.50;;;;;;5034371;28;20185;-67
2022/04/01 12:54:48;;;;;;;1.80;0.95;;;19.90;48.40;;;;;;5009668;28;20189;-66
2022/04/01 12:57:13;;;;;;;1.77;1.00;;;20.00;48.50;;;;;;4992885;28;20219;-66
2022/04/01 12:59:45;;;;;;;1.05;1.00;;;19.90;48.40;;;;;;5017317;28;20200;-66
2022/04/01 13:02:23;;;;;;;1.88;0.95;;;19.90;48.40;;;;;;5012532;28;20188;-66
2022/04/01 13:04:55;;;;;;;1.58;1.00;;;19.90;48.40;;;;;;5028874;28;20184;-66
2022/04/01 13:07:35;;;;;;;1.05;0.95;;;19.90;48.40;;;;;;5012368;28;20184;-66
2022/04/01 13:10:06;;;;;;;0.82;0.82;;;19.90;48.50;;;;;;5028679;28;20176;-66
2022/04/01 13:12:32;;;;;;;1.63;1.15;;;19.90;48.40;;;;;;5012112;28;20726;-66
2022/04/01 13:15:08;;;;;;;1.13;0.90;;;19.90;48.40;;;;;;5028607;28;20185;-66
2022/04/01 13:17:55;;;;;;;1.67;0.80;;;19.90;48.40;;;;;;5028796;28;20164;-66
2022/04/01 13:20:21;;;;;;;2.88;1.00;;;19.90;48.40;;;;;;5020213;28;20703;-66
2022/04/01 13:22:47;;;;;;;2.88;0.90;;;19.90;48.40;;;;;;5028694;28;20282;-66
2022/04/01 13:25:14;;;;;;;2.65;1.17;;;19.90;48.40;;;;;;5012099;28;20219;-66
2022/04/01 13:27:41;;;;;;;1.30;0.68;;;19.90;48.40;;;;;;5028365;28;20184;-64
2022/04/01 13:30:08;;;;;;;3.20;1.40;;;19.90;48.40;;;;;;5011583;28;20211;-66